Riyadh, Saudi Arabia
Current Conditions -  °F | °C
As of 4:00 PM on Friday 31 Oct 2014 (Local Time) from OERK Reporting Station
Clear Clear  
Wind Chill: 32°   Ceiling: Unl
Heat Index: 32°   Visibility: 6mi
Dew Point:   Wind: 12mph
Humidity: 15%   Direction: 220°SW
Pressure: 29.85"   Gusts: NA
Location:  24.65°N, 46.77°E
Report Text: OERK 311300Z 22010KT CAVOK 32/02 Q1011 NOSIG
Loading
Personal Weather Stations






























Interactive Weather Map
Tropical Storm Tracking
New forecast layout! Learn more

10-Day Weather Forecast

Advertisements
Track Severe Weather on mobile